sensor_id;sensor_type;location;lat;lon;timestamp;temperature;humidity
43808;DHT22;29438;50.664;10.098;2023-05-27T00:01:26;6.40;83.90
43808;DHT22;29438;50.664;10.098;2023-05-27T00:03:51;6.30;84.10
43808;DHT22;29438;50.664;10.098;2023-05-27T00:06:17;6.30;84.50
43808;DHT22;29438;50.664;10.098;2023-05-27T00:08:42;6.30;85.00
43808;DHT22;29438;50.664;10.098;2023-05-27T00:11:08;6.30;85.30
43808;DHT22;29438;50.664;10.098;2023-05-27T00:13:33;6.30;85.50
43808;DHT22;29438;50.664;10.098;2023-05-27T00:16:00;6.20;85.50
43808;DHT22;29438;50.664;10.098;2023-05-27T00:18:25;6.10;85.50
43808;DHT22;29438;50.664;10.098;2023-05-27T00:20:51;6.00;85.70
43808;DHT22;29438;50.664;10.098;2023-05-27T00:23:17;6.00;85.80
43808;DHT22;29438;50.664;10.098;2023-05-27T00:25:42;6.00;85.90
43808;DHT22;29438;50.664;10.098;2023-05-27T00:28:08;5.90;85.90
43808;DHT22;29438;50.664;10.098;2023-05-27T00:30:33;5.90;85.70
43808;DHT22;29438;50.664;10.098;2023-05-27T00:32:59;5.90;85.80
43808;DHT22;29438;50.664;10.098;2023-05-27T00:35:24;6.00;85.90
43808;DHT22;29438;50.664;10.098;2023-05-27T00:37:50;5.90;85.70
43808;DHT22;29438;50.664;10.098;2023-05-27T00:40:19;5.80;85.60
43808;DHT22;29438;50.664;10.098;2023-05-27T00:42:45;5.80;85.90
43808;DHT22;29438;50.664;10.098;2023-05-27T00:45:11;5.70;85.90
43808;DHT22;29438;50.664;10.098;2023-05-27T00:47:37;5.80;85.80
43808;DHT22;29438;50.664;10.098;2023-05-27T00:50:03;5.70;85.80
43808;DHT22;29438;50.664;10.098;2023-05-27T00:52:29;5.70;85.70
43808;DHT22;29438;50.664;10.098;2023-05-27T00:54:55;5.60;85.80
43808;DHT22;29438;50.664;10.098;2023-05-27T00:57:21;5.60;86.00
43808;DHT22;29438;50.664;10.098;2023-05-27T00:59:47;5.60;86.10
43808;DHT22;29438;50.664;10.098;2023-05-27T01:02:13;5.70;86.20
43808;DHT22;29438;50.664;10.098;2023-05-27T01:04:40;5.70;86.30
43808;DHT22;29438;50.664;10.098;2023-05-27T01:07:47;5.60;86.30
43808;DHT22;29438;50.664;10.098;2023-05-27T01:10:26;5.60;86.40
43808;DHT22;29438;50.664;10.098;2023-05-27T01:13:01;5.50;86.60
43808;DHT22;29438;50.664;10.098;2023-05-27T01:15:32;5.50;86.60
43808;DHT22;29438;50.664;10.098;2023-05-27T01:18:00;5.50;86.80
43808;DHT22;29438;50.664;10.098;2023-05-27T01:20:27;5.40;86.90
43808;DHT22;29438;50.664;10.098;2023-05-27T01:22:54;5.30;86.80
43808;DHT22;29438;50.664;10.098;2023-05-27T01:25:23;5.30;86.90
43808;DHT22;29438;50.664;10.098;2023-05-27T01:27:49;5.30;87.00
43808;DHT22;29438;50.664;10.098;2023-05-27T01:30:16;5.30;87.20
43808;DHT22;29438;50.664;10.098;2023-05-27T01:37:45;5.30;87.50
43808;DHT22;29438;50.664;10.098;2023-05-27T01:40:13;5.20;87.30
43808;DHT22;29438;50.664;10.098;2023-05-27T01:42:40;5.10;87.30
43808;DHT22;29438;50.664;10.098;2023-05-27T01:45:07;5.10;87.20
43808;DHT22;29438;50.664;10.098;2023-05-27T01:47:34;5.10;87.30
43808;DHT22;29438;50.664;10.098;2023-05-27T01:49:59;5.00;87.20
43808;DHT22;29438;50.664;10.098;2023-05-27T01:52:25;5.10;87.20
43808;DHT22;29438;50.664;10.098;2023-05-27T01:54:51;5.00;87.20
43808;DHT22;29438;50.664;10.098;2023-05-27T01:57:17;5.00;87.40
43808;DHT22;29438;50.664;10.098;2023-05-27T01:59:43;4.90;87.40
43808;DHT22;29438;50.664;10.098;2023-05-27T02:02:08;4.90;87.50
43808;DHT22;29438;50.664;10.098;2023-05-27T02:04:34;4.90;87.40
43808;DHT22;29438;50.664;10.098;2023-05-27T02:07:00;5.00;87.60
43808;DHT22;29438;50.664;10.098;2023-05-27T02:09:25;5.00;87.70
43808;DHT22;29438;50.664;10.098;2023-05-27T02:11:51;4.90;87.80
43808;DHT22;29438;50.664;10.098;2023-05-27T02:14:16;4.80;87.70
43808;DHT22;29438;50.664;10.098;2023-05-27T02:16:42;4.70;87.50
43808;DHT22;29438;50.664;10.098;2023-05-27T02:19:08;4.60;87.60
43808;DHT22;29438;50.664;10.098;2023-05-27T02:21:34;4.60;87.70
43808;DHT22;29438;50.664;10.098;2023-05-27T02:24:01;4.60;87.90
43808;DHT22;29438;50.664;10.098;2023-05-27T02:26:27;4.60;88.00
43808;DHT22;29438;50.664;10.098;2023-05-27T02:28:52;4.60;88.10
43808;DHT22;29438;50.664;10.098;2023-05-27T02:31:18;4.50;88.20
43808;DHT22;29438;50.664;10.098;2023-05-27T02:33:43;4.60;88.40
43808;DHT22;29438;50.664;10.098;2023-05-27T02:36:09;4.70;88.50
43808;DHT22;29438;50.664;10.098;2023-05-27T02:38:35;4.70;88.50
43808;DHT22;29438;50.664;10.098;2023-05-27T02:41:01;4.60;88.40
43808;DHT22;29438;50.664;10.098;2023-05-27T02:43:27;4.50;88.30
43808;DHT22;29438;50.664;10.098;2023-05-27T02:45:52;4.50;88.50
43808;DHT22;29438;50.664;10.098;2023-05-27T02:48:18;4.50;88.50
43808;DHT22;29438;50.664;10.098;2023-05-27T02:50:43;4.50;88.40
43808;DHT22;29438;50.664;10.098;2023-05-27T02:53:09;4.40;88.40
43808;DHT22;29438;50.664;10.098;2023-05-27T02:55:34;4.40;88.40
43808;DHT22;29438;50.664;10.098;2023-05-27T02:58:00;4.30;88.50
43808;DHT22;29438;50.664;10.098;2023-05-27T03:00:26;4.30;88.60
43808;DHT22;29438;50.664;10.098;2023-05-27T03:02:52;4.30;88.70
43808;DHT22;29438;50.664;10.098;2023-05-27T03:05:17;4.30;88.80
43808;DHT22;29438;50.664;10.098;2023-05-27T03:07:43;4.30;88.80
43808;DHT22;29438;50.664;10.098;2023-05-27T03:10:09;4.30;88.80
43808;DHT22;29438;50.664;10.098;2023-05-27T03:12:34;4.30;88.80
43808;DHT22;29438;50.664;10.098;2023-05-27T03:15:00;4.30;88.90
43808;DHT22;29438;50.664;10.098;2023-05-27T03:17:26;4.30;88.90
43808;DHT22;29438;50.664;10.098;2023-05-27T03:19:52;4.20;88.80
43808;DHT22;29438;50.664;10.098;2023-05-27T03:22:17;4.30;88.90
43808;DHT22;29438;50.664;10.098;2023-05-27T03:24:43;4.50;89.00
43808;DHT22;29438;50.664;10.098;2023-05-27T03:27:10;4.50;89.00
43808;DHT22;29438;50.664;10.098;2023-05-27T03:29:35;4.50;89.00
43808;DHT22;29438;50.664;10.098;2023-05-27T03:32:02;4.50;88.70
43808;DHT22;29438;50.664;10.098;2023-05-27T03:34:27;4.60;88.70
43808;DHT22;29438;50.664;10.098;2023-05-27T03:36:52;4.70;88.60
43808;DHT22;29438;50.664;10.098;2023-05-27T03:39:18;4.70;88.30
43808;DHT22;29438;50.664;10.098;2023-05-27T03:41:44;4.90;88.20
43808;DHT22;29438;50.664;10.098;2023-05-27T03:44:09;5.00;88.10
43808;DHT22;29438;50.664;10.098;2023-05-27T03:46:35;5.40;87.60
43808;DHT22;29438;50.664;10.098;2023-05-27T03:49:01;5.40;86.60
43808;DHT22;29438;50.664;10.098;2023-05-27T03:51:27;5.60;86.20
43808;DHT22;29438;50.664;10.098;2023-05-27T03:53:53;5.90;85.90
43808;DHT22;29438;50.664;10.098;2023-05-27T03:56:18;6.30;85.40
43808;DHT22;29438;50.664;10.098;2023-05-27T03:58:44;6.70;84.40
43808;DHT22;29438;50.664;10.098;2023-05-27T04:01:10;7.10;82.90
43808;DHT22;29438;50.664;10.098;2023-05-27T04:03:36;7.40;81.30
43808;DHT22;29438;50.664;10.098;2023-05-27T04:06:02;8.20;79.80
43808;DHT22;29438;50.664;10.098;2023-05-27T04:08:28;8.70;77.40
43808;DHT22;29438;50.664;10.098;2023-05-27T04:10:54;9.00;75.70
43808;DHT22;29438;50.664;10.098;2023-05-27T04:13:20;8.90;74.90
43808;DHT22;29438;50.664;10.098;2023-05-27T04:15:46;9.00;74.90
43808;DHT22;29438;50.664;10.098;2023-05-27T04:18:12;9.20;74.90
43808;DHT22;29438;50.664;10.098;2023-05-27T04:20:39;9.40;74.70
43808;DHT22;29438;50.664;10.098;2023-05-27T04:23:09;9.90;74.40
43808;DHT22;29438;50.664;10.098;2023-05-27T04:25:35;10.80;71.70
43808;DHT22;29438;50.664;10.098;2023-05-27T04:28:01;13.00;64.70
43808;DHT22;29438;50.664;10.098;2023-05-27T04:30:30;15.20;59.30
43808;DHT22;29438;50.664;10.098;2023-05-27T04:32:56;17.00;53.10
43808;DHT22;29438;50.664;10.098;2023-05-27T04:35:22;18.20;48.20
43808;DHT22;29438;50.664;10.098;2023-05-27T04:37:48;19.50;45.70
43808;DHT22;29438;50.664;10.098;2023-05-27T04:40:14;20.30;43.40
43808;DHT22;29438;50.664;10.098;2023-05-27T04:42:39;21.20;41.90
43808;DHT22;29438;50.664;10.098;2023-05-27T04:45:06;22.10;39.20
43808;DHT22;29438;50.664;10.098;2023-05-27T04:47:34;22.10;38.80
43808;DHT22;29438;50.664;10.098;2023-05-27T04:50:06;22.30;38.60
43808;DHT22;29438;50.664;10.098;2023-05-27T04:52:32;22.70;38.00
43808;DHT22;29438;50.664;10.098;2023-05-27T04:55:07;22.00;38.70
43808;DHT22;29438;50.664;10.098;2023-05-27T04:57:33;23.20;36.40
43808;DHT22;29438;50.664;10.098;2023-05-27T04:59:59;24.20;34.80
43808;DHT22;29438;50.664;10.098;2023-05-27T05:02:28;24.80;34.00
43808;DHT22;29438;50.664;10.098;2023-05-27T05:05:06;24.90;34.10
43808;DHT22;29438;50.664;10.098;2023-05-27T05:07:33;25.70;33.40
43808;DHT22;29438;50.664;10.098;2023-05-27T05:09:59;25.40;32.60
43808;DHT22;29438;50.664;10.098;2023-05-27T05:12:25;24.10;34.10
43808;DHT22;29438;50.664;10.098;2023-05-27T05:14:51;23.30;35.20
43808;DHT22;29438;50.664;10.098;2023-05-27T05:17:17;24.30;33.70
43808;DHT22;29438;50.664;10.098;2023-05-27T05:19:44;23.10;34.90
43808;DHT22;29438;50.664;10.098;2023-05-27T05:22:11;24.20;34.60
43808;DHT22;29438;50.664;10.098;2023-05-27T05:24:38;25.50;32.30
43808;DHT22;29438;50.664;10.098;2023-05-27T05:27:04;25.20;32.40
43808;DHT22;29438;50.664;10.098;2023-05-27T05:29:31;25.10;33.00
43808;DHT22;29438;50.664;10.098;2023-05-27T05:31:57;26.30;32.30
43808;DHT22;29438;50.664;10.098;2023-05-27T05:34:22;26.30;31.20
43808;DHT22;29438;50.664;10.098;2023-05-27T05:36:48;25.50;32.10
43808;DHT22;29438;50.664;10.098;2023-05-27T05:39:13;25.90;32.50
43808;DHT22;29438;50.664;10.098;2023-05-27T05:41:39;26.70;30.70
43808;DHT22;29438;50.664;10.098;2023-05-27T05:44:04;26.80;30.50
43808;DHT22;29438;50.664;10.098;2023-05-27T05:46:30;26.90;30.60
43808;DHT22;29438;50.664;10.098;2023-05-27T05:48:56;26.80;30.50
43808;DHT22;29438;50.664;10.098;2023-05-27T05:51:21;27.10;30.20
43808;DHT22;29438;50.664;10.098;2023-05-27T05:53:47;27.90;29.90
43808;DHT22;29438;50.664;10.098;2023-05-27T05:56:12;28.40;29.30
43808;DHT22;29438;50.664;10.098;2023-05-27T05:58:38;28.10;30.00
43808;DHT22;29438;50.664;10.098;2023-05-27T06:01:03;27.90;30.00
43808;DHT22;29438;50.664;10.098;2023-05-27T06:03:29;27.80;30.50
43808;DHT22;29438;50.664;10.098;2023-05-27T06:05:55;26.70;31.50
43808;DHT22;29438;50.664;10.098;2023-05-27T06:08:20;26.20;32.20
43808;DHT22;29438;50.664;10.098;2023-05-27T06:10:46;26.30;32.80
43808;DHT22;29438;50.664;10.098;2023-05-27T06:13:11;26.90;32.40
43808;DHT22;29438;50.664;10.098;2023-05-27T06:15:37;25.80;33.30
43808;DHT22;29438;50.664;10.098;2023-05-27T06:18:04;25.00;33.40
43808;DHT22;29438;50.664;10.098;2023-05-27T06:20:29;25.00;33.20
43808;DHT22;29438;50.664;10.098;2023-05-27T06:22:55;25.10;33.90
43808;DHT22;29438;50.664;10.098;2023-05-27T06:25:20;24.90;34.00
43808;DHT22;29438;50.664;10.098;2023-05-27T06:27:46;24.20;35.50
43808;DHT22;29438;50.664;10.098;2023-05-27T06:30:12;23.20;36.80
43808;DHT22;29438;50.664;10.098;2023-05-27T06:32:37;22.90;36.80
43808;DHT22;29438;50.664;10.098;2023-05-27T06:35:03;22.90;37.90
43808;DHT22;29438;50.664;10.098;2023-05-27T06:37:29;21.70;38.60
43808;DHT22;29438;50.664;10.098;2023-05-27T06:39:54;21.70;40.00
43808;DHT22;29438;50.664;10.098;2023-05-27T06:42:20;22.00;38.30
43808;DHT22;29438;50.664;10.098;2023-05-27T06:44:48;21.50;39.90
43808;DHT22;29438;50.664;10.098;2023-05-27T06:47:13;21.70;39.60
43808;DHT22;29438;50.664;10.098;2023-05-27T06:49:39;21.30;40.50
43808;DHT22;29438;50.664;10.098;2023-05-27T06:52:04;21.90;40.40
43808;DHT22;29438;50.664;10.098;2023-05-27T06:54:30;22.20;38.80
43808;DHT22;29438;50.664;10.098;2023-05-27T06:56:56;21.90;39.90
43808;DHT22;29438;50.664;10.098;2023-05-27T06:59:22;21.80;39.60
43808;DHT22;29438;50.664;10.098;2023-05-27T07:01:47;22.00;39.80
43808;DHT22;29438;50.664;10.098;2023-05-27T07:04:13;21.60;40.40
43808;DHT22;29438;50.664;10.098;2023-05-27T07:06:39;22.60;38.90
43808;DHT22;29438;50.664;10.098;2023-05-27T07:09:04;23.00;38.40
43808;DHT22;29438;50.664;10.098;2023-05-27T07:11:31;24.60;35.20
43808;DHT22;29438;50.664;10.098;2023-05-27T07:13:56;26.60;31.90
43808;DHT22;29438;50.664;10.098;2023-05-27T07:16:22;24.90;33.40
43808;DHT22;29438;50.664;10.098;2023-05-27T07:18:47;25.20;34.20
43808;DHT22;29438;50.664;10.098;2023-05-27T07:21:13;25.30;34.10
43808;DHT22;29438;50.664;10.098;2023-05-27T07:23:39;23.80;35.90
43808;DHT22;29438;50.664;10.098;2023-05-27T07:26:04;23.60;37.90
43808;DHT22;29438;50.664;10.098;2023-05-27T07:28:30;23.30;36.30
43808;DHT22;29438;50.664;10.098;2023-05-27T07:30:55;23.90;36.20
43808;DHT22;29438;50.664;10.098;2023-05-27T07:33:21;23.70;35.70
43808;DHT22;29438;50.664;10.098;2023-05-27T07:35:46;23.80;37.60
43808;DHT22;29438;50.664;10.098;2023-05-27T07:38:12;25.10;34.90
43808;DHT22;29438;50.664;10.098;2023-05-27T07:40:37;26.20;34.40
43808;DHT22;29438;50.664;10.098;2023-05-27T07:43:03;24.40;35.40
43808;DHT22;29438;50.664;10.098;2023-05-27T07:45:28;24.50;37.00
43808;DHT22;29438;50.664;10.098;2023-05-27T07:47:54;24.30;35.40
43808;DHT22;29438;50.664;10.098;2023-05-27T07:50:20;23.70;37.60
43808;DHT22;29438;50.664;10.098;2023-05-27T07:52:45;25.60;33.20
43808;DHT22;29438;50.664;10.098;2023-05-27T07:55:12;25.60;34.30
43808;DHT22;29438;50.664;10.098;2023-05-27T07:57:38;24.70;33.70
43808;DHT22;29438;50.664;10.098;2023-05-27T08:00:05;24.20;34.30
43808;DHT22;29438;50.664;10.098;2023-05-27T08:02:31;22.20;38.50
43808;DHT22;29438;50.664;10.098;2023-05-27T08:04:57;22.40;37.90
43808;DHT22;29438;50.664;10.098;2023-05-27T08:07:23;23.30;37.10
43808;DHT22;29438;50.664;10.098;2023-05-27T08:09:48;22.40;39.10
43808;DHT22;29438;50.664;10.098;2023-05-27T08:12:14;21.90;41.70
43808;DHT22;29438;50.664;10.098;2023-05-27T08:14:39;21.80;40.60
43808;DHT22;29438;50.664;10.098;2023-05-27T08:17:08;22.90;39.80
43808;DHT22;29438;50.664;10.098;2023-05-27T08:19:33;22.70;38.90
43808;DHT22;29438;50.664;10.098;2023-05-27T08:21:59;21.60;40.20
43808;DHT22;29438;50.664;10.098;2023-05-27T08:24:25;21.00;42.20
43808;DHT22;29438;50.664;10.098;2023-05-27T08:26:50;21.90;39.90
43808;DHT22;29438;50.664;10.098;2023-05-27T08:29:16;22.70;41.30
43808;DHT22;29438;50.664;10.098;2023-05-27T08:31:41;22.70;38.30
43808;DHT22;29438;50.664;10.098;2023-05-27T08:34:07;22.90;40.20
43808;DHT22;29438;50.664;10.098;2023-05-27T08:36:33;23.90;38.60
43808;DHT22;29438;50.664;10.098;2023-05-27T08:38:58;23.70;37.90
43808;DHT22;29438;50.664;10.098;2023-05-27T08:41:26;22.40;41.70
43808;DHT22;29438;50.664;10.098;2023-05-27T08:43:55;21.70;42.10
43808;DHT22;29438;50.664;10.098;2023-05-27T08:46:21;21.90;39.70
43808;DHT22;29438;50.664;10.098;2023-05-27T08:48:47;21.90;40.80
43808;DHT22;29438;50.664;10.098;2023-05-27T08:51:13;22.50;42.50
43808;DHT22;29438;50.664;10.098;2023-05-27T08:53:41;22.30;42.80
43808;DHT22;29438;50.664;10.098;2023-05-27T08:56:09;22.70;39.60
43808;DHT22;29438;50.664;10.098;2023-05-27T08:58:38;22.60;41.40
43808;DHT22;29438;50.664;10.098;2023-05-27T09:01:04;22.90;40.60
43808;DHT22;29438;50.664;10.098;2023-05-27T09:03:30;22.40;41.70
43808;DHT22;29438;50.664;10.098;2023-05-27T09:05:55;21.90;39.20
43808;DHT22;29438;50.664;10.098;2023-05-27T09:08:21;22.30;39.90
43808;DHT22;29438;50.664;10.098;2023-05-27T09:10:48;22.80;37.30
43808;DHT22;29438;50.664;10.098;2023-05-27T09:13:13;22.70;43.10
43808;DHT22;29438;50.664;10.098;2023-05-27T09:15:40;22.60;40.60
43808;DHT22;29438;50.664;10.098;2023-05-27T09:18:06;23.20;40.30
43808;DHT22;29438;50.664;10.098;2023-05-27T09:20:31;22.80;37.80
43808;DHT22;29438;50.664;10.098;2023-05-27T09:23:02;22.10;37.80
43808;DHT22;29438;50.664;10.098;2023-05-27T09:25:28;22.20;40.00
43808;DHT22;29438;50.664;10.098;2023-05-27T09:27:54;22.20;40.20
43808;DHT22;29438;50.664;10.098;2023-05-27T09:30:21;22.60;37.70
43808;DHT22;29438;50.664;10.098;2023-05-27T09:32:47;21.80;39.90
43808;DHT22;29438;50.664;10.098;2023-05-27T09:35:16;22.40;40.00
43808;DHT22;29438;50.664;10.098;2023-05-27T09:37:42;22.20;39.60
43808;DHT22;29438;50.664;10.098;2023-05-27T09:40:10;22.50;39.90
43808;DHT22;29438;50.664;10.098;2023-05-27T09:42:44;22.70;36.90
43808;DHT22;29438;50.664;10.098;2023-05-27T09:45:11;22.50;38.50
43808;DHT22;29438;50.664;10.098;2023-05-27T09:47:45;22.20;38.10
43808;DHT22;29438;50.664;10.098;2023-05-27T09:50:12;21.80;38.60
43808;DHT22;29438;50.664;10.098;2023-05-27T09:52:40;21.90;36.90
43808;DHT22;29438;50.664;10.098;2023-05-27T09:55:07;22.50;36.40
43808;DHT22;29438;50.664;10.098;2023-05-27T09:57:34;22.40;36.20
43808;DHT22;29438;50.664;10.098;2023-05-27T10:00:02;22.40;36.20
43808;DHT22;29438;50.664;10.098;2023-05-27T10:02:35;21.70;35.20
43808;DHT22;29438;50.664;10.098;2023-05-27T10:05:03;21.50;36.50
43808;DHT22;29438;50.664;10.098;2023-05-27T10:07:31;21.10;36.60
43808;DHT22;29438;50.664;10.098;2023-05-27T10:09:57;21.70;38.00
43808;DHT22;29438;50.664;10.098;2023-05-27T10:12:23;21.70;35.50
43808;DHT22;29438;50.664;10.098;2023-05-27T10:14:48;22.20;36.80
43808;DHT22;29438;50.664;10.098;2023-05-27T10:17:14;21.60;34.60
43808;DHT22;29438;50.664;10.098;2023-05-27T10:19:53;21.70;33.70
43808;DHT22;29438;50.664;10.098;2023-05-27T10:22:20;21.70;36.40
43808;DHT22;29438;50.664;10.098;2023-05-27T10:24:46;21.30;38.50
43808;DHT22;29438;50.664;10.098;2023-05-27T10:27:13;21.50;38.90
43808;DHT22;29438;50.664;10.098;2023-05-27T10:29:39;22.20;38.70
43808;DHT22;29438;50.664;10.098;2023-05-27T10:32:05;22.70;36.40
43808;DHT22;29438;50.664;10.098;2023-05-27T10:34:34;22.40;36.90
43808;DHT22;29438;50.664;10.098;2023-05-27T10:37:00;22.10;34.80
43808;DHT22;29438;50.664;10.098;2023-05-27T10:39:26;22.60;37.80
43808;DHT22;29438;50.664;10.098;2023-05-27T10:41:53;21.90;37.10
43808;DHT22;29438;50.664;10.098;2023-05-27T10:44:33;21.60;39.30
43808;DHT22;29438;50.664;10.098;2023-05-27T10:47:10;21.40;41.00
43808;DHT22;29438;50.664;10.098;2023-05-27T10:49:37;21.20;39.10
43808;DHT22;29438;50.664;10.098;2023-05-27T10:52:08;21.20;37.80
43808;DHT22;29438;50.664;10.098;2023-05-27T10:54:37;21.20;39.10
43808;DHT22;29438;50.664;10.098;2023-05-27T10:57:03;20.90;40.00
43808;DHT22;29438;50.664;10.098;2023-05-27T11:02:16;21.80;38.20
43808;DHT22;29438;50.664;10.098;2023-05-27T11:04:41;21.30;42.20
43808;DHT22;29438;50.664;10.098;2023-05-27T11:07:07;21.20;40.60
43808;DHT22;29438;50.664;10.098;2023-05-27T11:09:51;21.00;36.00
43808;DHT22;29438;50.664;10.098;2023-05-27T11:12:18;21.60;35.90
43808;DHT22;29438;50.664;10.098;2023-05-27T11:17:16;21.80;35.80
43808;DHT22;29438;50.664;10.098;2023-05-27T11:19:42;21.80;40.00
43808;DHT22;29438;50.664;10.098;2023-05-27T11:22:09;21.40;35.80
43808;DHT22;29438;50.664;10.098;2023-05-27T11:24:36;21.50;37.30
43808;DHT22;29438;50.664;10.098;2023-05-27T11:27:22;21.20;36.50
43808;DHT22;29438;50.664;10.098;2023-05-27T11:29:52;21.20;37.10
43808;DHT22;29438;50.664;10.098;2023-05-27T11:32:18;21.80;35.90
43808;DHT22;29438;50.664;10.098;2023-05-27T11:34:44;21.60;36.90
43808;DHT22;29438;50.664;10.098;2023-05-27T11:37:11;21.20;36.10
43808;DHT22;29438;50.664;10.098;2023-05-27T11:39:37;21.60;37.60
43808;DHT22;29438;50.664;10.098;2023-05-27T11:42:05;21.60;39.40
43808;DHT22;29438;50.664;10.098;2023-05-27T11:44:34;21.30;37.60
43808;DHT22;29438;50.664;10.098;2023-05-27T11:47:00;21.60;35.80
43808;DHT22;29438;50.664;10.098;2023-05-27T11:49:28;22.00;37.70
43808;DHT22;29438;50.664;10.098;2023-05-27T11:51:55;21.70;41.50
43808;DHT22;29438;50.664;10.098;2023-05-27T11:54:26;21.60;36.70
43808;DHT22;29438;50.664;10.098;2023-05-27T11:56:53;21.70;38.10
43808;DHT22;29438;50.664;10.098;2023-05-27T11:59:19;21.90;39.00
43808;DHT22;29438;50.664;10.098;2023-05-27T12:01:45;20.80;37.20
43808;DHT22;29438;50.664;10.098;2023-05-27T12:04:11;20.70;37.60
43808;DHT22;29438;50.664;10.098;2023-05-27T12:06:37;21.20;43.30
43808;DHT22;29438;50.664;10.098;2023-05-27T12:09:06;21.20;39.90
43808;DHT22;29438;50.664;10.098;2023-05-27T12:11:32;21.00;42.00
43808;DHT22;29438;50.664;10.098;2023-05-27T12:13:58;21.20;41.70
43808;DHT22;29438;50.664;10.098;2023-05-27T12:16:24;21.30;42.30
43808;DHT22;29438;50.664;10.098;2023-05-27T12:18:49;21.00;39.30
43808;DHT22;29438;50.664;10.098;2023-05-27T12:21:16;21.20;44.20
43808;DHT22;29438;50.664;10.098;2023-05-27T12:23:42;21.90;44.10
43808;DHT22;29438;50.664;10.098;2023-05-27T12:26:07;22.40;43.80
43808;DHT22;29438;50.664;10.098;2023-05-27T12:28:33;22.00;39.10
43808;DHT22;29438;50.664;10.098;2023-05-27T12:30:58;21.70;40.70
43808;DHT22;29438;50.664;10.098;2023-05-27T12:33:24;22.10;44.80
43808;DHT22;29438;50.664;10.098;2023-05-27T12:35:50;22.70;43.40
43808;DHT22;29438;50.664;10.098;2023-05-27T12:38:15;22.40;42.60
43808;DHT22;29438;50.664;10.098;2023-05-27T12:40:41;22.00;43.30
43808;DHT22;29438;50.664;10.098;2023-05-27T12:43:06;21.30;42.30
43808;DHT22;29438;50.664;10.098;2023-05-27T12:45:32;21.10;45.50
43808;DHT22;29438;50.664;10.098;2023-05-27T12:47:58;21.20;42.30
43808;DHT22;29438;50.664;10.098;2023-05-27T12:50:24;21.00;41.70
43808;DHT22;29438;50.664;10.098;2023-05-27T12:52:50;21.20;43.80
43808;DHT22;29438;50.664;10.098;2023-05-27T12:55:17;21.00;45.40
43808;DHT22;29438;50.664;10.098;2023-05-27T12:57:44;21.20;46.80
43808;DHT22;29438;50.664;10.098;2023-05-27T13:00:10;20.90;44.10
43808;DHT22;29438;50.664;10.098;2023-05-27T13:02:37;21.00;45.30
43808;DHT22;29438;50.664;10.098;2023-05-27T13:05:03;20.80;40.80
43808;DHT22;29438;50.664;10.098;2023-05-27T13:07:29;20.70;43.50
43808;DHT22;29438;50.664;10.098;2023-05-27T13:09:54;20.80;42.70
43808;DHT22;29438;50.664;10.098;2023-05-27T13:12:21;20.90;42.40
43808;DHT22;29438;50.664;10.098;2023-05-27T13:14:47;21.20;42.20
43808;DHT22;29438;50.664;10.098;2023-05-27T13:17:13;21.20;41.60
43808;DHT22;29438;50.664;10.098;2023-05-27T13:19:39;21.20;42.20
43808;DHT22;29438;50.664;10.098;2023-05-27T13:22:05;21.20;39.10
43808;DHT22;29438;50.664;10.098;2023-05-27T13:24:30;20.80;40.50
43808;DHT22;29438;50.664;10.098;2023-05-27T13:26:56;20.70;43.50
43808;DHT22;29438;50.664;10.098;2023-05-27T13:29:21;20.90;43.00
43808;DHT22;29438;50.664;10.098;2023-05-27T13:31:47;21.20;42.10
43808;DHT22;29438;50.664;10.098;2023-05-27T13:34:12;21.40;41.30
43808;DHT22;29438;50.664;10.098;2023-05-27T13:36:38;21.10;42.20
43808;DHT22;29438;50.664;10.098;2023-05-27T13:39:03;20.80;42.40
43808;DHT22;29438;50.664;10.098;2023-05-27T13:41:29;20.60;44.20
43808;DHT22;29438;50.664;10.098;2023-05-27T13:43:54;20.70;43.30
43808;DHT22;29438;50.664;10.098;2023-05-27T13:46:20;20.80;42.90
43808;DHT22;29438;50.664;10.098;2023-05-27T13:48:45;21.10;44.00
43808;DHT22;29438;50.664;10.098;2023-05-27T13:51:11;21.10;43.00
43808;DHT22;29438;50.664;10.098;2023-05-27T13:53:36;20.60;42.80
43808;DHT22;29438;50.664;10.098;2023-05-27T13:56:02;20.40;41.10
43808;DHT22;29438;50.664;10.098;2023-05-27T13:58:27;20.70;42.50
43808;DHT22;29438;50.664;10.098;2023-05-27T14:00:54;20.90;41.60
43808;DHT22;29438;50.664;10.098;2023-05-27T14:03:20;20.90;42.40
43808;DHT22;29438;50.664;10.098;2023-05-27T14:05:45;20.70;40.90
43808;DHT22;29438;50.664;10.098;2023-05-27T14:08:11;20.40;44.60
43808;DHT22;29438;50.664;10.098;2023-05-27T14:10:36;20.50;41.40
43808;DHT22;29438;50.664;10.098;2023-05-27T14:13:02;20.60;43.90
43808;DHT22;29438;50.664;10.098;2023-05-27T14:15:28;20.60;46.30
43808;DHT22;29438;50.664;10.098;2023-05-27T14:17:55;20.70;42.70
43808;DHT22;29438;50.664;10.098;2023-05-27T14:20:21;20.60;45.90
43808;DHT22;29438;50.664;10.098;2023-05-27T14:22:47;20.70;41.30
43808;DHT22;29438;50.664;10.098;2023-05-27T14:25:12;20.60;42.30
43808;DHT22;29438;50.664;10.098;2023-05-27T14:27:40;20.80;42.90
43808;DHT22;29438;50.664;10.098;2023-05-27T14:30:06;20.70;42.80
43808;DHT22;29438;50.664;10.098;2023-05-27T14:32:32;20.40;41.30
43808;DHT22;29438;50.664;10.098;2023-05-27T14:34:57;20.20;40.90
43808;DHT22;29438;50.664;10.098;2023-05-27T14:37:23;20.10;42.30
43808;DHT22;29438;50.664;10.098;2023-05-27T14:39:51;20.20;42.40
43808;DHT22;29438;50.664;10.098;2023-05-27T14:42:17;20.00;43.20
43808;DHT22;29438;50.664;10.098;2023-05-27T14:44:42;19.80;42.40
43808;DHT22;29438;50.664;10.098;2023-05-27T14:47:08;19.80;42.90
43808;DHT22;29438;50.664;10.098;2023-05-27T14:49:33;19.80;44.70
43808;DHT22;29438;50.664;10.098;2023-05-27T14:51:59;20.20;43.90
43808;DHT22;29438;50.664;10.098;2023-05-27T14:54:24;20.00;45.30
43808;DHT22;29438;50.664;10.098;2023-05-27T14:56:50;19.90;44.00
43808;DHT22;29438;50.664;10.098;2023-05-27T14:59:15;19.90;44.40
43808;DHT22;29438;50.664;10.098;2023-05-27T15:01:41;19.90;43.90
43808;DHT22;29438;50.664;10.098;2023-05-27T15:04:06;19.80;44.80
43808;DHT22;29438;50.664;10.098;2023-05-27T15:06:32;19.80;44.10
43808;DHT22;29438;50.664;10.098;2023-05-27T15:08:57;19.50;45.60
43808;DHT22;29438;50.664;10.098;2023-05-27T15:11:23;19.50;46.30
43808;DHT22;29438;50.664;10.098;2023-05-27T15:13:49;19.80;46.00
43808;DHT22;29438;50.664;10.098;2023-05-27T15:16:14;19.70;45.30
43808;DHT22;29438;50.664;10.098;2023-05-27T15:18:40;19.80;45.50
43808;DHT22;29438;50.664;10.098;2023-05-27T15:21:05;19.80;45.80
43808;DHT22;29438;50.664;10.098;2023-05-27T15:23:33;19.90;45.10
43808;DHT22;29438;50.664;10.098;2023-05-27T15:25:58;20.00;45.50